aviador You're here:

KGFL Decoded Metar

GLENS FALLS in NY, USA
Report Time2018-04-26 13:13:00
UTC Time2018-04-26 13:20:42
Flight Rules mvfr MVFR
Wind230° at 06 kt
W.Decomp.*RWY 19: 3.5 kt HW 4.9 kt RCW
RWY 30: 3.4 kt HW 5 kt LCW
W.Rank230° ranks 11
Current wind is below 230° avg. (6.1)
Visibility9999 m
Phenomena:N/A
Clouds:Broken 024 Hf
Broken 065 Hf
Overcast 080 Hf
Expected CloudBase > 1,600 ft AGL from Temp-Dew spread
Ceiling2,400 ft
Temp11°C (ISA -3)
Dew Point07°C (77% RH)
AAT8.2°C
QNH1004 hPa
Density Alt384 ft
Elevation338 ft
Report Wrong Elevation
Raw Report
KGFL 261313Z AUTO 23006KT 10SM BKN024 BKN065 OVC080 11/07 A2964
RMK AO2 T01060072=

Extra information for KGFL:More info

Metar Taf Metar & Taf Last 4 Metars F.Rules Stats Wind Profile Meteogram Temp Stats Airport Information Weather charts Add Link Nearby VenuesMetar ALERT Operation Metar Decoded Social comments

AIRNAV info for KGFL